Time;durP1;ratioP1;P1;durP2;ratioP2;P2;SDS_P1;SDS_P2;PMS_P1;PMS_P2;Temp;Humidity;BMP_temperature;BMP_pressure;BME280_temperature;BME280_humidity;BME280_pressure;Samples;Min_cycle;Max_cycle;Signal;HPM_P1;HPM_P2
2022/09/13 00:00:59;;;;;;;4.30;4.00;;;17.40;1.00;;;;;;5094583;28;20423;-69
2022/09/13 00:03:25;;;;;;;4.20;3.90;;;17.40;1.00;;;;;;5094121;28;20415;-69
2022/09/13 00:05:51;;;;;;;4.60;4.20;;;17.40;1.00;;;;;;5093978;28;20454;-75
2022/09/13 00:08:18;;;;;;;4.17;3.87;;;17.30;1.00;;;;;;5093585;28;20416;-69
2022/09/13 00:10:45;;;;;;;6.13;5.07;;;17.30;1.00;;;;;;5094307;28;20396;-70
2022/09/13 00:13:12;;;;;;;8.80;5.00;;;17.30;1.00;;;;;;5093966;28;20475;-72
2022/09/13 00:15:47;;;;;;;5.53;4.80;;;17.20;1.00;;;;;;5094166;28;20391;-73
2022/09/13 00:18:17;;;;;;;5.40;4.97;;;17.20;1.00;;;;;;5093471;28;20430;-77
2022/09/13 00:21:06;;;;;;;5.53;5.03;;;17.10;1.00;;;;;;5094161;28;20507;-77
2022/09/13 00:23:43;;;;;;;6.37;5.67;;;17.00;1.00;;;;;;5092921;28;20430;-76
2022/09/13 00:26:48;;;;;;;;;;;;;;;;;;;;;
2022/09/13 00:29:15;;;;;;;6.57;5.10;;;16.80;23.10;;;;;;5085411;28;20431;-76
2022/09/13 00:31:41;;;;;;;5.47;4.97;;;16.80;40.50;;;;;;5075744;28;20832;-76
2022/09/13 00:52:04;;;;;;;;;;;;;;;;;;;;;
2022/09/13 00:55:16;;;;;;;6.63;6.03;;;16.20;94.30;;;;;;4933464;29;20423;-78
2022/09/13 01:04:46;;;;;;;6.40;5.90;;;16.10;99.90;;;;;;4898078;29;20480;-78
2022/09/13 01:07:15;;;;;;;7.90;7.07;;;16.10;99.90;;;;;;4904389;29;20532;-77
2022/09/13 01:09:44;;;;;;;6.90;6.30;;;16.00;99.90;;;;;;4984140;28;20475;-78
2022/09/13 01:12:22;;;;;;;6.40;5.80;;;16.00;99.90;;;;;;5061843;28;20498;-77
2022/09/13 01:22:19;;;;;;;;;;;;;;;;;;;;;
2022/09/13 01:25:35;;;;;;;6.30;5.70;;;16.00;99.90;;;;;;5092691;28;20404;-76
2022/09/13 01:28:29;;;;;;;7.13;6.47;;;16.00;99.90;;;;;;5092442;28;20427;-77
2022/09/13 01:31:34;;;;;;;6.13;5.63;;;16.00;99.90;;;;;;5093076;28;20888;-76
2022/09/13 01:34:14;;;;;;;7.00;6.40;;;15.90;99.90;;;;;;5050611;28;20411;-77
2022/09/13 01:36:58;;;;;;;;;;;;;;;;;;;;;
2022/09/13 01:46:50;;;;;;;7.10;6.03;;;16.00;99.90;;;;;;5092198;28;20513;-77
2022/09/13 01:49:25;;;;;;;7.03;6.33;;;16.00;99.90;;;;;;5092472;28;20423;-76
2022/09/13 01:52:25;;;;;;;7.57;6.87;;;16.00;99.90;;;;;;5092104;28;20411;-76
2022/09/13 01:55:22;;;;;;;7.83;6.80;;;15.90;99.90;;;;;;5083416;28;20541;-77
2022/09/13 01:58:10;;;;;;;10.30;7.17;;;15.90;99.90;;;;;;5091877;28;20442;-77
2022/09/13 02:00:52;;;;;;;7.40;6.47;;;15.90;99.90;;;;;;5092819;28;20404;-77
2022/09/13 02:03:22;;;;;;;8.90;7.90;;;15.90;99.90;;;;;;5092698;28;20422;-76
2022/09/13 02:05:56;;;;;;;9.17;7.37;;;15.90;99.90;;;;;;5092372;28;20463;-76
2022/09/13 02:08:57;;;;;;;;;;;;;;;;;;;;;
2022/09/13 02:18:49;;;;;;;14.77;8.67;;;15.80;99.90;;;;;;4990901;28;20412;-77
2022/09/13 02:21:23;;;;;;;9.10;8.07;;;15.90;99.90;;;;;;4916166;29;20649;-77
2022/09/13 02:30:31;;;;;;;10.53;9.53;;;15.80;99.90;;;;;;5095310;28;20419;-77
2022/09/13 02:33:05;;;;;;;8.07;7.27;;;15.80;99.90;;;;;;5096125;28;20411;-76
2022/09/13 02:35:42;;;;;;;9.80;8.07;;;15.90;99.90;;;;;;5096145;28;20396;-76
2022/09/13 02:45:28;;;;;;;8.50;7.63;;;15.90;99.90;;;;;;5013804;28;20454;-76
2022/09/13 02:48:11;;;;;;;7.83;7.03;;;15.90;99.90;;;;;;4995835;28;20447;-75
2022/09/13 02:51:08;;;;;;;10.20;7.57;;;15.90;99.90;;;;;;5013765;28;20763;-78
2022/09/13 02:54:19;;;;;;;11.87;8.07;;;15.90;99.90;;;;;;5095597;28;20787;-79
2022/09/13 03:17:55;;;;;;;;;;;;;;;;;;;;;
2022/09/13 03:21:23;;;;;;;;;;;;;;;;;;;;;
2022/09/13 03:35:01;;;;;;;14.20;9.53;;;15.50;99.90;;;;;;4973928;28;20407;-80
2022/09/13 03:38:07;;;;;;;13.30;10.13;;;15.50;99.90;;;;;;4953162;28;20901;-81
2022/09/13 03:48:15;;;;;;;14.03;10.10;;;15.60;1.00;;;;;;4993543;28;20412;-81
2022/09/13 03:50:46;;;;;;;18.57;11.53;;;15.60;1.00;;;;;;4976912;28;20412;-79
2022/09/13 03:57:43;;;;;;;15.67;11.87;;;15.50;1.00;;;;;;4915216;29;20463;-79
2022/09/13 04:07:50;;;;;;;;;;;;;;;;;;;;;
2022/09/13 04:42:17;;;;;;;;;;;;;;;;;;;;;
2022/09/13 04:48:28;;;;;;;23.00;13.90;;;15.80;1.00;;;;;;4858465;29;20490;-79
2022/09/13 04:58:33;;;;;;;27.57;15.50;;;15.80;1.00;;;;;;4787668;29;20447;-80
2022/09/13 05:04:24;;;;;;;25.93;14.30;;;15.80;27.70;;;;;;4933991;29;20455;-81
2022/09/13 05:06:57;;;;;;;24.00;13.87;;;15.80;68.60;;;;;;4913194;29;20466;-80
2022/09/13 05:09:27;;;;;;;21.67;14.63;;;15.80;69.90;;;;;;4933586;29;20450;-79
2022/09/13 05:12:15;;;;;;;22.50;14.47;;;15.70;91.70;;;;;;5004297;28;20415;-80
2022/09/13 05:14:50;;;;;;;22.17;15.07;;;15.80;93.70;;;;;;5011417;28;20498;-80
2022/09/13 05:17:16;;;;;;;21.77;15.33;;;15.80;99.90;;;;;;5024738;28;20498;-80
2022/09/13 05:23:28;;;;;;;22.10;14.67;;;15.80;99.90;;;;;;5092783;28;20414;-80
2022/09/13 05:28:56;;;;;;;19.47;12.30;;;15.90;99.90;;;;;;5092974;28;20569;-79
2022/09/13 05:31:32;;;;;;;18.53;13.07;;;15.80;99.90;;;;;;5073270;28;20408;-80
2022/09/13 05:35:08;;;;;;;18.57;12.83;;;15.90;99.90;;;;;;5072927;28;20408;-80
2022/09/13 05:37:37;;;;;;;18.90;12.40;;;16.00;99.90;;;;;;5036611;28;20420;-80
2022/09/13 05:40:06;;;;;;;20.20;13.43;;;16.00;99.90;;;;;;5073846;28;20428;-80
2022/09/13 05:42:35;;;;;;;16.83;11.93;;;16.00;99.90;;;;;;5054832;28;20404;-80
2022/09/13 05:48:33;;;;;;;17.40;11.27;;;16.00;99.90;;;;;;4990764;28;20528;-79
2022/09/13 05:51:10;;;;;;;15.60;10.53;;;15.90;99.90;;;;;;4990660;28;20578;-79
2022/09/13 05:54:08;;;;;;;18.90;10.53;;;16.00;99.90;;;;;;5062745;28;20412;-80
2022/09/13 05:56:36;;;;;;;14.70;8.77;;;16.00;99.90;;;;;;5057588;28;20475;-79
2022/09/13 05:59:05;;;;;;;16.87;9.53;;;16.00;99.90;;;;;;5087856;28;20526;-79
2022/09/13 06:01:41;;;;;;;14.80;9.50;;;16.10;99.90;;;;;;5078896;28;20411;-79
2022/09/13 06:04:11;;;;;;;10.90;7.67;;;16.00;99.90;;;;;;5083361;28;20416;-78
2022/09/13 06:07:03;;;;;;;17.17;7.30;;;16.00;99.90;;;;;;5075407;28;20801;-79
2022/09/13 06:12:21;;;;;;;12.70;8.03;;;16.00;99.90;;;;;;5096471;28;20950;-79
2022/09/13 06:14:50;;;;;;;11.83;7.03;;;16.00;99.90;;;;;;5061842;28;20420;-78
2022/09/13 06:17:25;;;;;;;10.20;7.13;;;16.00;99.90;;;;;;5075278;28;20411;-79
2022/09/13 06:19:51;;;;;;;13.00;7.47;;;16.00;99.90;;;;;;5074061;28;20442;-78
2022/09/13 06:22:20;;;;;;;10.70;6.37;;;15.90;99.90;;;;;;5082838;28;20420;-78
2022/09/13 06:24:49;;;;;;;13.57;7.70;;;16.00;99.90;;;;;;5058173;28;20217;-78
2022/09/13 06:27:17;;;;;;;8.60;5.60;;;16.00;99.90;;;;;;5086915;28;20481;-78
2022/09/13 06:29:49;;;;;;;9.80;6.50;;;15.90;99.90;;;;;;5075150;28;20423;-77
2022/09/13 06:32:17;;;;;;;13.00;7.00;;;16.00;99.90;;;;;;5095775;28;20407;-78
2022/09/13 06:34:43;;;;;;;12.93;6.23;;;16.00;99.90;;;;;;5095592;28;20396;-78
2022/09/13 06:37:09;;;;;;;7.20;5.57;;;16.10;99.90;;;;;;5077051;28;20419;-78
2022/09/13 06:39:51;;;;;;;11.20;4.90;;;16.00;99.90;;;;;;5095985;28;20450;-79
2022/09/13 06:42:23;;;;;;;7.60;5.53;;;16.00;99.90;;;;;;5057661;28;20178;-78
2022/09/13 06:44:49;;;;;;;14.47;6.63;;;16.10;99.90;;;;;;5058433;28;20412;-77
2022/09/13 06:47:34;;;;;;;;;;;;;;;;;;;;;
2022/09/13 06:50:35;;;;;;;8.07;5.10;;;16.20;99.90;;;;;;5094798;28;20158;-77
2022/09/13 06:56:34;;;;;;;6.10;3.07;;;16.30;99.90;;;;;;5094768;28;20442;-78
2022/09/13 06:59:06;;;;;;;7.70;3.60;;;16.30;99.90;;;;;;5078207;28;20447;-77
2022/09/13 07:01:40;;;;;;;9.40;3.30;;;16.40;99.90;;;;;;5079017;28;20511;-77
2022/09/13 07:04:11;;;;;;;15.53;3.60;;;16.40;99.90;;;;;;5077388;28;20495;-77
2022/09/13 07:06:50;;;;;;;5.67;2.70;;;16.40;99.90;;;;;;5075662;28;20780;-77
2022/09/13 07:09:21;;;;;;;4.47;2.53;;;16.50;99.90;;;;;;5076966;28;20432;-77
2022/09/13 07:15:51;;;;;;;4.30;2.07;;;16.40;99.90;;;;;;5012805;28;20398;-77
2022/09/13 07:21:34;;;;;;;3.50;1.77;;;16.30;79.60;;;;;;5013006;28;20473;-77
2022/09/13 07:24:28;;;;;;;9.30;2.63;;;16.40;62.80;;;;;;5013038;28;20391;-76
2022/09/13 07:27:08;;;;;;;3.47;2.10;;;16.50;51.50;;;;;;5066541;28;20498;-76
2022/09/13 07:29:34;;;;;;;4.93;1.50;;;16.60;37.20;;;;;;5095058;28;20883;-78
2022/09/13 07:32:00;;;;;;;12.23;2.30;;;16.60;10.50;;;;;;5077221;28;20418;-76
2022/09/13 07:34:26;;;;;;;4.90;1.83;;;16.70;1.00;;;;;;5076983;28;20412;-77
2022/09/13 07:36:52;;;;;;;4.77;1.63;;;16.70;1.00;;;;;;5094434;28;20407;-76
2022/09/13 07:39:19;;;;;;;3.73;1.57;;;16.70;1.00;;;;;;5076803;28;20962;-76
2022/09/13 07:41:48;;;;;;;4.90;1.63;;;16.70;1.00;;;;;;5076727;28;20415;-76
2022/09/13 07:44:21;;;;;;;2.93;1.67;;;16.80;1.00;;;;;;5093237;28;20430;-76
2022/09/13 07:46:49;;;;;;;2.67;1.40;;;16.90;1.00;;;;;;5094508;28;20439;-76
2022/09/13 07:49:20;;;;;;;3.17;1.40;;;16.90;1.00;;;;;;5093491;28;20427;-76
2022/09/13 07:51:49;;;;;;;6.80;1.50;;;17.00;1.00;;;;;;5076557;28;20431;-76
2022/09/13 07:54:17;;;;;;;3.73;2.07;;;17.10;1.00;;;;;;5076471;28;20454;-76
2022/09/13 07:56:43;;;;;;;4.70;1.93;;;17.10;1.00;;;;;;5093945;28;20461;-75
2022/09/13 07:59:14;;;;;;;4.60;1.37;;;17.10;1.00;;;;;;5093890;28;20920;-75
2022/09/13 08:01:52;;;;;;;3.57;1.10;;;17.20;1.00;;;;;;5076288;28;20814;-76
2022/09/13 08:04:23;;;;;;;3.60;1.73;;;17.20;1.00;;;;;;5094378;28;20407;-75
2022/09/13 08:07:31;;;;;;;8.37;3.37;;;17.20;1.00;;;;;;5093609;28;20462;-75
2022/09/13 08:09:57;;;;;;;2.47;1.13;;;17.40;99.90;;;;;;5092748;28;20412;-75
2022/09/13 08:12:36;;;;;;;4.97;1.80;;;17.40;99.90;;;;;;5076076;28;20745;-75
2022/09/13 08:15:03;;;;;;;4.90;1.40;;;17.40;99.90;;;;;;5076006;28;20570;-76
2022/09/13 08:17:28;;;;;;;6.63;1.47;;;17.40;99.90;;;;;;5092513;28;20908;-75
2022/09/13 08:19:57;;;;;;;6.70;1.43;;;17.50;99.90;;;;;;5093540;28;20434;-75
2022/09/13 08:22:23;;;;;;;6.17;2.27;;;17.60;99.90;;;;;;5093847;28;20169;-75
2022/09/13 08:24:49;;;;;;;5.87;2.37;;;17.60;99.90;;;;;;5075883;28;20773;-75
2022/09/13 08:27:15;;;;;;;5.53;2.07;;;17.60;99.90;;;;;;5075015;28;20205;-75
2022/09/13 08:29:41;;;;;;;4.97;1.20;;;17.70;99.90;;;;;;5093869;28;20373;-75
2022/09/13 08:32:09;;;;;;;9.80;1.00;;;17.70;99.90;;;;;;5086840;28;20183;-74
2022/09/13 08:34:35;;;;;;;3.83;1.30;;;17.70;99.90;;;;;;5072360;28;20427;-74
2022/09/13 08:37:01;;;;;;;6.63;1.30;;;17.70;94.80;;;;;;5092173;28;20415;-74
2022/09/13 08:39:37;;;;;;;;;;;;;;;;;;;;;
2022/09/13 08:42:21;;;;;;;5.67;1.33;;;18.00;92.90;;;;;;5093779;28;20167;-75
2022/09/13 08:44:52;;;;;;;5.50;1.20;;;18.10;65.50;;;;;;5093500;28;20425;-74
2022/09/13 08:47:31;;;;;;;3.23;1.07;;;18.00;27.90;;;;;;5074766;28;20447;-75
2022/09/13 08:50:33;;;;;;;5.97;1.27;;;18.10;18.80;;;;;;5093510;28;20751;-75
2022/09/13 08:53:16;;;;;;;6.23;1.20;;;18.10;1.00;;;;;;5074862;28;20807;-74
2022/09/13 08:56:11;;;;;;;3.20;1.50;;;18.00;1.00;;;;;;5093559;28;20400;-74
2022/09/13 09:02:54;;;;;;;5.50;1.20;;;18.40;1.00;;;;;;5011446;28;20496;-73
2022/09/13 09:05:22;;;;;;;6.17;1.90;;;18.60;1.00;;;;;;5011332;28;20422;-73
2022/09/13 09:07:51;;;;;;;12.33;1.17;;;18.70;1.00;;;;;;5090736;28;20502;-73
2022/09/13 09:10:40;;;;;;;3.20;1.50;;;19.00;1.00;;;;;;5093369;28;20400;-74
2022/09/13 09:13:28;;;;;;;6.63;1.77;;;18.90;1.00;;;;;;5092639;28;20433;-74
2022/09/13 09:16:25;;;;;;;4.03;1.20;;;18.90;1.00;;;;;;5075169;28;20433;-73
2022/09/13 09:19:06;;;;;;;2.67;1.30;;;18.80;1.00;;;;;;5078892;28;20538;-72
2022/09/13 09:21:35;;;;;;;2.90;1.20;;;18.90;1.00;;;;;;5093244;28;20891;-74
2022/09/13 09:24:10;;;;;;;3.90;1.37;;;19.20;1.00;;;;;;5093254;28;20419;-73
2022/09/13 09:26:40;;;;;;;6.60;1.47;;;19.50;1.00;;;;;;5092388;28;20906;-74
2022/09/13 09:29:31;;;;;;;7.83;1.03;;;19.80;1.00;;;;;;5075802;28;20942;-72
2022/09/13 09:32:25;;;;;;;6.70;1.47;;;20.00;1.00;;;;;;5099382;28;20392;-74
2022/09/13 09:35:16;;;;;;;2.60;1.00;;;20.40;1.00;;;;;;5099901;28;20403;-73
2022/09/13 09:37:49;;;;;;;5.03;1.20;;;20.70;1.00;;;;;;5080697;28;20422;-72
2022/09/13 09:40:16;;;;;;;6.63;3.50;;;20.90;1.00;;;;;;5081576;28;20447;-75
2022/09/13 09:42:49;;;;;;;1.97;0.80;;;21.10;1.00;;;;;;5099826;28;20521;-74
2022/09/13 09:45:32;;;;;;;1.87;0.80;;;20.90;1.00;;;;;;5099390;28;20509;-71
2022/09/13 09:48:08;;;;;;;3.57;0.93;;;21.10;1.00;;;;;;5079879;28;20431;-75
2022/09/13 09:50:43;;;;;;;6.27;1.40;;;21.30;1.00;;;;;;5081450;28;20915;-74
2022/09/13 09:53:43;;;;;;;4.43;1.37;;;21.40;1.00;;;;;;5099656;28;20405;-74
2022/09/13 09:56:25;;;;;;;3.17;1.10;;;21.80;1.00;;;;;;5075740;28;20431;-70
2022/09/13 09:58:53;;;;;;;7.00;1.13;;;21.90;1.00;;;;;;5080805;28;20439;-75
2022/09/13 10:01:31;;;;;;;4.00;0.90;;;21.80;1.00;;;;;;5081382;28;21011;-70
2022/09/13 10:04:11;;;;;;;2.47;1.10;;;21.50;1.00;;;;;;5081268;28;20460;-73
2022/09/13 10:06:39;;;;;;;4.40;1.00;;;21.30;1.00;;;;;;5105934;28;20448;-68
2022/09/13 10:09:21;;;;;;;9.73;1.00;;;21.30;1.00;;;;;;5101467;28;20443;-74
2022/09/13 10:11:56;;;;;;;3.60;0.93;;;20.80;1.00;;;;;;5109544;28;20446;-69
2022/09/13 10:14:35;;;;;;;5.93;1.10;;;20.40;1.00;;;;;;5079239;28;20490;-74
2022/09/13 10:17:13;;;;;;;2.27;0.87;;;20.10;1.00;;;;;;5062414;28;20432;-69
2022/09/13 10:19:40;;;;;;;3.83;0.90;;;20.10;1.00;;;;;;5079030;28;20474;-70
2022/09/13 10:22:11;;;;;;;1.20;0.70;;;20.40;1.00;;;;;;5061111;28;20448;-69
2022/09/13 10:24:38;;;;;;;3.50;1.20;;;20.80;1.00;;;;;;5078729;28;20771;-71
2022/09/13 10:27:17;;;;;;;3.90;1.00;;;21.00;1.00;;;;;;5078313;28;20944;-69
2022/09/13 10:29:47;;;;;;;2.90;1.17;;;21.20;1.00;;;;;;5078606;28;20451;-73
2022/09/13 10:32:15;;;;;;;1.53;1.20;;;21.60;1.00;;;;;;5078113;28;20838;-74
2022/09/13 10:34:46;;;;;;;3.50;1.20;;;21.50;1.00;;;;;;5060642;28;20758;-74
2022/09/13 10:37:25;;;;;;;3.03;0.93;;;21.00;1.00;;;;;;5078379;28;20803;-69
2022/09/13 10:40:03;;;;;;;1.20;0.77;;;21.00;1.00;;;;;;5077511;28;20467;-71
2022/09/13 10:42:30;;;;;;;2.73;1.20;;;21.40;1.00;;;;;;5074802;28;20400;-74
2022/09/13 10:45:07;;;;;;;3.30;1.23;;;21.90;1.00;;;;;;5074975;28;20446;-69
2022/09/13 10:47:46;;;;;;;3.10;0.87;;;22.20;1.00;;;;;;5093656;28;20458;-69
2022/09/13 10:50:20;;;;;;;4.13;1.10;;;22.90;1.00;;;;;;5082717;28;20861;-68
2022/09/13 10:52:51;;;;;;;3.80;1.30;;;23.40;1.00;;;;;;5057478;28;20757;-68
2022/09/13 10:55:17;;;;;;;4.80;1.30;;;23.50;1.00;;;;;;5075318;28;20404;-69
2022/09/13 10:58:06;;;;;;;2.60;0.80;;;23.60;1.00;;;;;;5075752;28;20428;-74
2022/09/13 11:00:51;;;;;;;3.97;1.43;;;23.10;1.00;;;;;;5074424;28;20474;-71
2022/09/13 11:07:38;;;;;;;2.97;0.90;;;22.30;1.00;;;;;;5074573;28;20530;-68
2022/09/13 11:10:16;;;;;;;6.60;0.90;;;21.60;1.00;;;;;;5057278;28;20412;-73
2022/09/13 11:12:57;;;;;;;3.30;1.53;;;20.90;1.00;;;;;;5057337;28;20405;-75
2022/09/13 11:15:45;;;;;;;6.90;1.00;;;20.50;1.00;;;;;;5057207;28;20396;-74
2022/09/13 11:18:39;;;;;;;2.77;0.87;;;20.20;1.00;;;;;;5056715;28;20835;-71
2022/09/13 11:21:31;;;;;;;4.83;1.10;;;20.10;1.00;;;;;;5056745;28;20455;-70
2022/09/13 11:24:16;;;;;;;2.20;0.97;;;20.40;1.00;;;;;;5067193;28;20436;-72
2022/09/13 11:26:58;;;;;;;4.10;0.80;;;20.50;1.00;;;;;;5076645;28;20462;-76
2022/09/13 11:29:42;;;;;;;3.80;0.87;;;20.70;1.00;;;;;;5095349;28;20415;-68
2022/09/13 11:32:21;;;;;;;3.07;1.03;;;21.00;1.00;;;;;;5095376;28;20400;-67
2022/09/13 11:35:15;;;;;;;2.30;1.13;;;21.10;1.00;;;;;;5095238;28;20482;-75
2022/09/13 11:38:13;;;;;;;2.10;1.80;;;20.80;1.00;;;;;;5094646;28;20764;-73
2022/09/13 11:40:39;;;;;;;2.77;1.10;;;20.60;1.00;;;;;;5091093;28;20554;-75
2022/09/13 11:43:36;;;;;;;5.00;1.00;;;20.70;1.00;;;;;;5095165;28;20490;-75
2022/09/13 11:46:24;;;;;;;4.20;1.30;;;20.60;1.00;;;;;;5094417;28;20657;-68
2022/09/13 11:49:02;;;;;;;4.20;1.00;;;20.30;1.00;;;;;;5076823;28;20951;-68
2022/09/13 11:51:50;;;;;;;3.80;1.43;;;20.30;1.00;;;;;;5095235;28;20436;-73
2022/09/13 11:54:36;;;;;;;2.50;0.83;;;20.30;1.00;;;;;;5094857;28;20439;-71
2022/09/13 11:57:08;;;;;;;4.80;1.40;;;20.30;1.00;;;;;;5094122;28;20404;-75
2022/09/13 11:59:55;;;;;;;2.40;1.40;;;20.40;1.00;;;;;;5094738;28;20549;-68
2022/09/13 12:02:21;;;;;;;4.17;0.90;;;20.50;1.00;;;;;;5094932;28;20402;-68
2022/09/13 12:05:00;;;;;;;3.73;1.40;;;20.50;1.00;;;;;;5094880;28;20487;-68
2022/09/13 12:07:37;;;;;;;3.57;1.13;;;20.30;1.00;;;;;;5094111;28;20453;-68
2022/09/13 12:10:21;;;;;;;7.37;1.20;;;20.20;1.00;;;;;;5094762;28;20876;-69
2022/09/13 12:12:49;;;;;;;5.90;1.40;;;20.20;1.00;;;;;;5094442;28;20395;-72
2022/09/13 12:15:27;;;;;;;2.70;1.20;;;20.60;1.00;;;;;;5094732;28;20426;-69
2022/09/13 12:18:07;;;;;;;3.90;1.00;;;21.00;1.00;;;;;;5093639;28;20451;-74
2022/09/13 12:24:37;;;;;;;1.40;0.97;;;21.50;1.00;;;;;;5094572;28;20409;-69
2022/09/13 12:27:35;;;;;;;1.97;0.87;;;20.90;1.00;;;;;;5093359;28;20464;-76
2022/09/13 12:30:16;;;;;;;3.57;1.10;;;20.60;1.00;;;;;;5094318;28;20406;-71
2022/09/13 12:32:44;;;;;;;1.30;0.90;;;20.60;1.00;;;;;;5094025;28;20396;-69
2022/09/13 12:35:23;;;;;;;5.50;1.10;;;20.90;1.00;;;;;;5094281;28;20422;-73
2022/09/13 12:41:52;;;;;;;5.83;1.27;;;21.40;1.00;;;;;;5094073;28;20380;-76
2022/09/13 12:44:54;;;;;;;4.73;1.53;;;20.70;1.00;;;;;;5094094;28;20403;-69
2022/09/13 12:47:51;;;;;;;4.53;1.57;;;20.40;1.00;;;;;;5093316;28;20532;-72
2022/09/13 12:50:54;;;;;;;3.77;1.63;;;19.90;1.00;;;;;;5094138;28;20883;-75
2022/09/13 12:53:54;;;;;;;4.53;1.30;;;19.90;1.00;;;;;;5093911;28;20482;-67
2022/09/13 12:56:41;;;;;;;5.30;1.40;;;20.00;1.00;;;;;;5093273;28;21309;-74
2022/09/13 12:59:10;;;;;;;2.30;1.10;;;20.30;1.00;;;;;;5093506;28;20501;-73
2022/09/13 13:01:36;;;;;;;6.47;1.37;;;20.60;1.00;;;;;;5085304;28;20432;-69
2022/09/13 13:04:36;;;;;;;3.87;1.30;;;20.40;1.00;;;;;;5082683;28;20454;-73
2022/09/13 13:13:59;;;;;;;3.03;0.90;;;20.90;1.00;;;;;;5093503;28;20387;-70
2022/09/13 13:16:28;;;;;;;4.00;1.33;;;21.30;1.00;;;;;;5092906;28;20410;-74
2022/09/13 13:18:57;;;;;;;6.90;1.67;;;21.50;1.00;;;;;;5093509;28;20422;-69
2022/09/13 13:21:42;;;;;;;3.03;0.77;;;21.30;1.00;;;;;;5093562;28;20403;-69
2022/09/13 13:24:20;;;;;;;4.73;1.10;;;21.00;1.00;;;;;;5093576;28;20486;-68
2022/09/13 13:26:47;;;;;;;3.83;1.20;;;20.80;1.00;;;;;;5092914;28;20520;-71
2022/09/13 13:29:23;;;;;;;3.10;1.07;;;20.70;1.00;;;;;;5093324;28;20407;-68
2022/09/13 13:32:06;;;;;;;2.93;0.83;;;20.30;1.00;;;;;;5075457;28;20407;-67
2022/09/13 13:34:42;;;;;;;3.90;1.17;;;20.20;1.00;;;;;;5093462;28;20460;-73
2022/09/13 13:37:08;;;;;;;7.60;1.90;;;20.10;1.00;;;;;;5092655;28;20404;-75
2022/09/13 13:39:43;;;;;;;3.83;1.50;;;19.90;1.00;;;;;;5093125;28;20947;-68
2022/09/13 13:42:14;;;;;;;1.90;1.13;;;20.00;1.00;;;;;;5093459;28;20438;-76
2022/09/13 13:44:40;;;;;;;2.83;1.40;;;20.10;1.00;;;;;;5093309;28;20432;-69
2022/09/13 13:47:06;;;;;;;6.40;3.00;;;20.30;1.00;;;;;;5074386;28;20497;-68
2022/09/13 13:49:37;;;;;;;3.07;1.13;;;20.50;1.00;;;;;;5093081;28;20430;-75
2022/09/13 13:52:36;;;;;;;3.97;1.40;;;20.40;1.00;;;;;;5093537;28;20912;-71
2022/09/13 13:55:27;;;;;;;6.23;1.43;;;20.30;1.00;;;;;;5093073;28;20416;-73
2022/09/13 13:58:23;;;;;;;7.10;1.33;;;20.20;1.00;;;;;;5092472;28;20460;-70
2022/09/13 14:01:19;;;;;;;6.53;1.63;;;20.10;1.00;;;;;;5093483;28;20416;-73
2022/09/13 14:03:59;;;;;;;4.60;1.40;;;19.70;1.00;;;;;;5092885;28;20408;-71
2022/09/13 14:06:57;;;;;;;2.30;1.27;;;20.10;1.00;;;;;;5092411;28;20453;-70
2022/09/13 14:09:28;;;;;;;5.73;1.63;;;20.50;1.00;;;;;;5092999;28;20450;-69
2022/09/13 14:11:54;;;;;;;2.77;1.17;;;20.80;1.00;;;;;;5093117;28;20829;-75
2022/09/13 14:14:57;;;;;;;5.40;1.20;;;21.20;1.00;;;;;;5093199;28;20442;-75
2022/09/13 14:17:32;;;;;;;1.87;1.27;;;21.10;1.00;;;;;;5094705;28;20170;-68
2022/09/13 14:20:10;;;;;;;3.87;1.20;;;20.80;1.00;;;;;;5096901;28;20410;-68
2022/09/13 14:22:36;;;;;;;6.10;2.13;;;20.30;1.00;;;;;;5078691;28;20415;-75
2022/09/13 14:25:42;;;;;;;3.93;1.40;;;20.10;1.00;;;;;;5096944;28;20418;-74
2022/09/13 14:28:13;;;;;;;3.40;1.40;;;19.80;1.00;;;;;;5098414;28;20435;-76
2022/09/13 14:30:39;;;;;;;5.90;1.27;;;19.80;1.00;;;;;;5096727;28;20395;-75
2022/09/13 14:33:05;;;;;;;2.20;0.90;;;19.60;1.00;;;;;;5096821;28;20403;-75
2022/09/13 14:35:36;;;;;;;2.33;1.20;;;19.60;1.00;;;;;;5096576;28;20399;-69
2022/09/13 14:38:24;;;;;;;4.80;1.40;;;19.90;1.00;;;;;;5095601;28;20447;-75
2022/09/13 14:40:52;;;;;;;2.57;0.97;;;20.30;1.00;;;;;;5078749;28;20439;-75
2022/09/13 14:43:23;;;;;;;4.60;1.07;;;20.50;1.00;;;;;;5096434;28;20402;-68
2022/09/13 14:46:32;;;;;;;2.20;1.27;;;20.80;1.00;;;;;;5096077;28;20513;-75
2022/09/13 14:49:07;;;;;;;2.80;0.97;;;21.00;1.00;;;;;;5023864;28;20882;-74
2022/09/13 14:51:46;;;;;;;4.10;1.03;;;21.30;1.00;;;;;;5096142;28;20459;-74
2022/09/13 14:54:17;;;;;;;5.80;1.30;;;21.50;1.00;;;;;;5096183;28;20435;-74
2022/09/13 14:56:51;;;;;;;2.07;0.93;;;21.60;1.00;;;;;;5095562;28;20404;-69
2022/09/13 14:59:28;;;;;;;3.50;1.73;;;21.80;1.00;;;;;;5077916;28;20882;-74
2022/09/13 15:01:56;;;;;;;2.60;1.00;;;21.60;1.00;;;;;;5095893;28;20418;-74
2022/09/13 15:04:23;;;;;;;4.70;1.00;;;21.10;1.00;;;;;;5096062;28;20396;-75
2022/09/13 15:07:18;;;;;;;4.13;1.30;;;20.80;1.00;;;;;;5095326;28;20450;-68
2022/09/13 15:09:44;;;;;;;3.37;1.00;;;20.40;1.00;;;;;;5095933;28;20905;-75
2022/09/13 15:12:24;;;;;;;1.83;0.97;;;19.80;1.00;;;;;;5095874;28;20764;-75
2022/09/13 15:15:20;;;;;;;2.63;1.10;;;19.90;1.00;;;;;;5095802;28;20416;-75
2022/09/13 15:17:57;;;;;;;6.27;1.20;;;19.70;1.00;;;;;;5095084;28;20441;-72
2022/09/13 15:26:45;;;;;;;4.57;1.70;;;19.30;1.00;;;;;;5062463;28;20609;-68
2022/09/13 15:29:17;;;;;;;3.20;1.07;;;19.20;1.00;;;;;;5095273;28;20427;-73
2022/09/13 15:31:43;;;;;;;5.40;1.20;;;19.20;1.00;;;;;;5095495;28;20419;-76
2022/09/13 15:34:26;;;;;;;2.50;1.30;;;19.10;1.00;;;;;;5095433;28;20392;-68
2022/09/13 15:37:10;;;;;;;2.70;1.13;;;19.10;1.00;;;;;;5094592;28;20169;-75
2022/09/13 15:39:50;;;;;;;4.77;1.10;;;18.90;1.00;;;;;;5072493;28;20459;-74
2022/09/13 15:42:16;;;;;;;3.67;0.90;;;18.80;1.00;;;;;;5089111;28;20530;-72
2022/09/13 15:44:42;;;;;;;2.77;1.00;;;18.80;1.00;;;;;;5095475;28;20400;-69
2022/09/13 15:47:17;;;;;;;1.70;0.90;;;18.90;1.00;;;;;;5078343;28;20464;-68
2022/09/13 15:49:50;;;;;;;2.37;1.37;;;18.80;1.00;;;;;;5094719;28;20415;-75
2022/09/13 15:52:18;;;;;;;1.83;1.00;;;18.80;1.00;;;;;;5077016;28;20412;-70
2022/09/13 15:55:10;;;;;;;6.67;1.00;;;18.70;1.00;;;;;;5074957;28;20405;-69
2022/09/13 15:57:36;;;;;;;1.10;0.90;;;18.60;1.00;;;;;;5091387;28;20416;-76
2022/09/13 16:00:05;;;;;;;3.30;2.10;;;18.50;1.00;;;;;;5093269;28;20395;-70
2022/09/13 16:02:34;;;;;;;3.93;1.60;;;18.50;1.00;;;;;;5090903;28;20447;-67
2022/09/13 16:05:00;;;;;;;1.50;1.10;;;18.40;1.00;;;;;;5090632;28;20441;-69
2022/09/13 16:07:26;;;;;;;1.00;0.80;;;18.40;1.00;;;;;;5078928;28;20535;-75
2022/09/13 16:09:53;;;;;;;2.33;0.80;;;18.40;1.00;;;;;;5073879;28;20647;-68
2022/09/13 16:15:41;;;;;;;2.03;1.40;;;18.20;1.00;;;;;;5010053;28;20458;-69
2022/09/13 16:18:15;;;;;;;2.70;0.97;;;18.20;1.00;;;;;;5009977;28;20542;-75
2022/09/13 16:20:42;;;;;;;6.03;2.07;;;18.10;1.00;;;;;;5061633;28;20420;-71
2022/09/13 16:23:08;;;;;;;2.10;1.60;;;18.10;1.00;;;;;;5091516;28;20415;-68
2022/09/13 16:25:34;;;;;;;3.03;1.40;;;18.10;1.00;;;;;;5092342;28;20491;-73
2022/09/13 16:28:04;;;;;;;5.00;1.67;;;18.10;1.00;;;;;;5056129;28;20448;-68
2022/09/13 16:30:32;;;;;;;5.43;2.10;;;18.00;1.00;;;;;;5055020;28;20447;-76
2022/09/13 16:32:58;;;;;;;3.00;1.40;;;18.00;1.00;;;;;;5090770;28;21176;-75
2022/09/13 16:35:28;;;;;;;1.40;1.30;;;17.90;1.00;;;;;;5093824;28;20460;-68
2022/09/13 16:37:54;;;;;;;4.23;1.80;;;17.90;1.00;;;;;;5091757;28;20443;-76
2022/09/13 16:40:27;;;;;;;6.33;2.50;;;17.90;1.00;;;;;;5092877;28;20404;-68
2022/09/13 16:42:53;;;;;;;1.70;1.10;;;17.90;1.00;;;;;;5091452;28;20912;-68
2022/09/13 16:45:22;;;;;;;8.93;1.87;;;17.80;1.00;;;;;;5091522;28;20434;-68
2022/09/13 16:47:48;;;;;;;4.23;2.10;;;17.70;1.00;;;;;;5088726;28;20174;-68
2022/09/13 16:50:19;;;;;;;3.33;2.00;;;17.70;1.00;;;;;;5093798;28;20893;-69
2022/09/13 16:52:45;;;;;;;4.57;2.07;;;17.70;1.00;;;;;;5059746;28;20417;-74
2022/09/13 16:55:14;;;;;;;4.63;2.37;;;17.70;1.00;;;;;;5108929;28;20489;-69
2022/09/13 16:57:51;;;;;;;;;;;;;;;;;;;;;
2022/09/13 17:00:23;;;;;;;3.43;1.67;;;17.50;1.00;;;;;;5106455;28;20418;-73
2022/09/13 17:02:49;;;;;;;2.83;2.63;;;17.40;1.00;;;;;;5091467;28;20422;-73
2022/09/13 17:05:15;;;;;;;3.00;2.10;;;17.40;1.00;;;;;;5090826;28;20422;-76
2022/09/13 17:07:41;;;;;;;5.50;2.10;;;17.50;1.00;;;;;;5088732;28;20455;-73
2022/09/13 17:10:23;;;;;;;2.40;1.70;;;17.50;1.00;;;;;;5057423;28;20474;-71
2022/09/13 17:12:49;;;;;;;2.23;1.60;;;17.50;1.00;;;;;;5092849;28;20199;-72
2022/09/13 17:15:15;;;;;;;2.10;1.40;;;17.50;1.00;;;;;;5091219;28;20954;-69
2022/09/13 17:17:41;;;;;;;2.07;1.97;;;17.40;1.00;;;;;;5090376;28;20454;-70
2022/09/13 17:20:09;;;;;;;5.90;1.37;;;17.30;1.00;;;;;;5093585;28;20431;-68
2022/09/13 17:22:35;;;;;;;1.57;0.90;;;17.40;1.00;;;;;;5058293;28;20517;-73
2022/09/13 17:25:03;;;;;;;7.90;1.70;;;17.30;1.00;;;;;;5073333;28;20408;-72
2022/09/13 17:27:28;;;;;;;5.30;1.30;;;17.10;1.00;;;;;;5087136;28;20546;-68
2022/09/13 17:29:54;;;;;;;3.10;1.93;;;17.00;1.00;;;;;;5093683;28;20503;-69